»·PEaware :: SKW5233 KSFO-KBUR

SKW5233 :: KSFO-KBUR

FLIGHT INFORMATION

Flight Status: Arrived
Operator:
SkyWest Airlines
More flights by this operator :: More flights under this callsign
Pilot: Tim M. (868)
Aircraft: MCDONNELL-DOUGLAS MD-82
(MD82)
More flights by this aircraft type
Origin: KSFO San Francisco Intl
United States
Destination: KBUR Bob Hope-Burbank
United States
More flights between these airports :: More routes between these airports
Route: +SSTIK4 CISKO DCT RDHOT ROKKR2
File this flight plan on PilotEdge
Remarks:
Altitude:
(Current/Filed)
35,000ft
Speed:
(Current/Filed)
447kts
Departed: 25-Aug-20 07:26 PM
Arrived: 25-Aug-20 08:19 PM
Distance/Time
Traveled:
283nm/0:52
Distance/Time
To Go:
Arrived

Flight Plot

Page will automatically refresh every two minutes.

Flight plan parsing failed; only flown route is shown


Map Options




Map Legend


Flown Route
Filed Route
Departure Airport
Arrival Airport
Navaid (VOR, NDB)
Fix

Horizontal Profiles

Position Reports

Time Latitude Longitude Heading Altitude Ground
Speed
25-Aug-20 18:48 37.620584 -122.386420 301 22ft 0kts
25-Aug-20 18:49 37.620584 -122.386420 301 22ft 0kts
25-Aug-20 18:50 37.620584 -122.386420 301 22ft 0kts
25-Aug-20 18:51 37.620584 -122.386420 301 22ft 0kts
25-Aug-20 18:52 37.620584 -122.386420 301 22ft 0kts
25-Aug-20 18:53 37.620584 -122.386420 301 22ft 0kts
25-Aug-20 18:54 37.620584 -122.386420 301 22ft 0kts
25-Aug-20 18:55 37.620584 -122.386420 301 22ft 0kts
25-Aug-20 18:56 37.620584 -122.386420 301 22ft 0kts
25-Aug-20 18:57 37.620584 -122.386420 301 22ft 0kts
25-Aug-20 18:58 37.620584 -122.386420 301 22ft 0kts
25-Aug-20 18:59 37.620584 -122.386420 301 22ft 0kts
25-Aug-20 19:00 37.620584 -122.386420 301 22ft 0kts
25-Aug-20 19:01 37.620584 -122.386420 301 22ft 0kts
25-Aug-20 19:02 37.620584 -122.386420 301 22ft 0kts
25-Aug-20 19:03 37.620584 -122.386420 301 22ft 0kts
25-Aug-20 19:04 37.620584 -122.386420 301 22ft 0kts
25-Aug-20 19:05 37.620584 -122.386420 301 22ft 0kts
25-Aug-20 19:06 37.620584 -122.386420 301 22ft 0kts
25-Aug-20 19:07 37.620584 -122.386420 301 22ft 0kts
25-Aug-20 19:08 37.620584 -122.386420 301 22ft 0kts
25-Aug-20 19:09 37.620584 -122.386420 301 22ft 0kts
25-Aug-20 19:11 37.620584 -122.386420 301 22ft 0kts
25-Aug-20 19:12 37.620574 -122.386400 301 22ft 2kts
25-Aug-20 19:13 37.620244 -122.385904 18 22ft 1kts
25-Aug-20 19:14 37.620045 -122.386035 27 22ft 0kts
25-Aug-20 19:15 37.620047 -122.386034 27 22ft 0kts
25-Aug-20 19:16 37.620050 -122.386032 27 22ft 0kts
25-Aug-20 19:17 37.620052 -122.386031 27 22ft 0kts
25-Aug-20 19:18 37.620269 -122.385890 27 22ft 7kts
25-Aug-20 19:19 37.620105 -122.383074 118 22ft 11kts
25-Aug-20 19:20 37.618289 -122.379643 148 22ft 12kts
25-Aug-20 19:21 37.615388 -122.380464 208 22ft 10kts
25-Aug-20 19:22 37.612662 -122.382274 207 22ft 11kts
25-Aug-20 19:23 37.610007 -122.384121 215 22ft 10kts
25-Aug-20 19:24 37.608446 -122.383747 117 22ft 4kts
25-Aug-20 19:25 37.609500 -122.381861 28 22ft 24kts
25-Aug-20 19:26 37.638240 -122.362000 19 903ft 162kts
25-Aug-20 19:27 37.683060 -122.343431 3 2679ft 208kts
25-Aug-20 19:27 37.704826 -122.387166 237 4193ft 246kts
25-Aug-20 19:29 37.626573 -122.430056 194 7383ft 277kts
25-Aug-20 19:30 37.551291 -122.454319 194 9999ft 289kts
25-Aug-20 19:31 37.464009 -122.466742 158 10673ft 359kts
25-Aug-20 19:31 37.408647 -122.388544 123 12445ft 371kts
25-Aug-20 19:32 37.339890 -122.289149 138 14680ft 382kts
25-Aug-20 19:34 37.246532 -122.182061 138 17494ft 397kts
25-Aug-20 19:34 37.179293 -122.101150 138 19342ft 408kts
25-Aug-20 19:35 37.096141 -122.001071 139 21352ft 419kts
25-Aug-20 19:36 37.010647 -121.899243 140 22876ft 430kts
25-Aug-20 19:37 36.923132 -121.795417 140 24541ft 438kts
25-Aug-20 19:38 36.848894 -121.707160 141 25794ft 444kts
25-Aug-20 19:39 36.758076 -121.600444 141 27352ft 447kts
25-Aug-20 19:40 36.668731 -121.494537 141 29171ft 440kts
25-Aug-20 19:41 36.582989 -121.394454 142 30730ft 436kts
25-Aug-20 19:42 36.495701 -121.290740 142 32181ft 432kts
25-Aug-20 19:43 36.408114 -121.190036 143 33529ft 425kts
25-Aug-20 19:44 36.318919 -121.095543 147 34665ft 418kts
25-Aug-20 19:45 36.227540 -121.003637 146 34881ft 424kts
25-Aug-20 19:46 36.137695 -120.911367 146 34815ft 416kts
25-Aug-20 19:47 36.054256 -120.826016 146 34889ft 420kts
25-Aug-20 19:48 35.970201 -120.740516 146 34927ft 422kts
25-Aug-20 19:49 35.879600 -120.648681 146 34925ft 420kts
25-Aug-20 19:50 35.789269 -120.557363 146 34897ft 421kts
25-Aug-20 19:51 35.698661 -120.465954 146 34895ft 420kts
25-Aug-20 19:52 35.608078 -120.375404 147 34889ft 420kts
25-Aug-20 19:53 35.518312 -120.282894 144 34860ft 422kts
25-Aug-20 19:54 35.429256 -120.189274 145 34876ft 421kts
25-Aug-20 19:55 35.339683 -120.095941 145 34427ft 432kts
25-Aug-20 19:56 35.250479 -120.004183 145 32559ft 445kts
25-Aug-20 19:57 35.156669 -119.906177 144 30819ft 434kts
25-Aug-20 19:58 35.067794 -119.815547 144 29211ft 425kts
25-Aug-20 19:59 34.977787 -119.723763 143 27438ft 418kts
25-Aug-20 20:00 34.889817 -119.633525 143 24972ft 407kts
25-Aug-20 20:01 34.815306 -119.532273 130 22483ft 389kts
25-Aug-20 20:02 34.753192 -119.434618 132 19424ft 374kts
25-Aug-20 20:03 34.689788 -119.338810 132 17527ft 346kts
25-Aug-20 20:04 34.635844 -119.254386 127 14928ft 337kts
25-Aug-20 20:05 34.592122 -119.164955 124 12935ft 326kts
25-Aug-20 20:06 34.545422 -119.069620 124 10897ft 327kts
25-Aug-20 20:07 34.496236 -118.983952 131 8891ft 296kts
25-Aug-20 20:08 34.449678 -118.916733 131 7454ft 288kts
25-Aug-20 20:09 34.397482 -118.845236 138 6136ft 275kts
25-Aug-20 20:10 34.342903 -118.790644 142 5938ft 287kts
25-Aug-20 20:11 34.277999 -118.730486 143 4288ft 278kts
25-Aug-20 20:12 34.227176 -118.671266 121 4039ft 273kts
25-Aug-20 20:13 34.200852 -118.598354 98 3978ft 229kts
25-Aug-20 20:14 34.200495 -118.529374 87 3527ft 184kts
25-Aug-20 20:15 34.199103 -118.470102 89 2716ft 187kts
25-Aug-20 20:16 34.197956 -118.414528 90 1524ft 146kts
25-Aug-20 20:17 34.197886 -118.370248 89 809ft 134kts
25-Aug-20 20:18 34.197437 -118.350784 161 787ft 1kts
25-Aug-20 20:19 34.197257 -118.351029 253 787ft 8kts
25-Aug-20 20:20 34.197090 -118.354746 231 787ft 1kts
25-Aug-20 20:21 34.196636 -118.354868 168 787ft 0kts
25-Aug-20 20:22 34.196636 -118.354868 168 787ft 0kts

Navigation Log

Ident Type
Flight plan parsing failed, navigation log unavailable